createdAt,value
2022-12-05T00:02:39.079Z,-6.56
2022-12-05T00:06:04.090Z,-6.59
2022-12-05T00:09:20.093Z,-6.60
2022-12-05T00:12:44.719Z,-6.63
2022-12-05T00:16:06.494Z,-6.68
2022-12-05T00:19:56.792Z,-6.72
2022-12-05T00:23:18.584Z,-6.72
2022-12-05T00:27:27.573Z,-6.80
2022-12-05T00:31:21.567Z,-6.91
2022-12-05T00:38:08.923Z,-7.00
2022-12-05T00:41:51.323Z,-7.04
2022-12-05T00:45:14.257Z,-6.98
2022-12-05T00:48:41.644Z,-6.94
2022-12-05T00:52:01.447Z,-6.89
2022-12-05T00:55:17.735Z,-6.87
2022-12-05T00:58:38.656Z,-6.85
2022-12-05T01:01:58.258Z,-6.83
2022-12-05T01:05:12.501Z,-6.85
2022-12-05T01:08:25.982Z,-6.84
2022-12-05T01:11:52.067Z,-6.84
2022-12-05T01:15:13.322Z,-6.87
2022-12-05T01:18:57.068Z,-6.90
2022-12-05T01:22:10.584Z,-6.89
2022-12-05T01:25:41.444Z,-6.95
2022-12-05T01:28:58.109Z,-7.02
2022-12-05T01:32:20.219Z,-7.00
2022-12-05T01:35:38.215Z,-6.99
2022-12-05T01:43:22.873Z,-6.98
2022-12-05T01:51:02.811Z,-6.96
2022-12-05T01:54:44.595Z,-6.96
2022-12-05T01:58:23.051Z,-6.98
2022-12-05T02:01:51.903Z,-7.01
2022-12-05T02:05:27.734Z,-7.02
2022-12-05T02:08:48.082Z,-7.03
2022-12-05T02:12:17.176Z,-7.04
2022-12-05T02:15:57.077Z,-7.05
2022-12-05T02:19:26.638Z,-7.07
2022-12-05T02:23:37.649Z,-7.09
2022-12-05T02:27:07.357Z,-7.14
2022-12-05T02:30:32.121Z,-7.19
2022-12-05T02:34:14.158Z,-7.21
2022-12-05T02:38:04.800Z,-7.22
2022-12-05T02:41:32.421Z,-7.22
2022-12-05T02:45:12.514Z,-7.21
2022-12-05T02:48:29.979Z,-7.17
2022-12-05T02:51:45.740Z,-7.14
2022-12-05T02:55:04.301Z,-7.12
2022-12-05T02:58:31.512Z,-7.10
2022-12-05T03:01:54.978Z,-7.09
2022-12-05T03:09:03.503Z,-7.18
2022-12-05T03:12:41.770Z,-7.18
2022-12-05T03:16:04.645Z,-7.13
2022-12-05T03:19:42.822Z,-7.12
2022-12-05T03:23:22.638Z,-7.14
2022-12-05T03:27:16.900Z,-7.14
2022-12-05T03:30:57.273Z,-7.15
2022-12-05T03:34:15.225Z,-7.15
2022-12-05T03:38:06.773Z,-7.12
2022-12-05T03:45:24.691Z,-7.18
2022-12-05T03:49:23.175Z,-7.31
2022-12-05T03:53:18.526Z,-7.31
2022-12-05T03:56:38.163Z,-7.28
2022-12-05T03:59:59.598Z,-7.26
2022-12-05T04:03:34.103Z,-7.25
2022-12-05T04:07:07.071Z,-7.25
2022-12-05T04:10:25.950Z,-7.22
2022-12-05T04:14:07.766Z,-7.22
2022-12-05T04:17:36.470Z,-7.21
2022-12-05T04:21:15.277Z,-7.25
2022-12-05T04:24:54.265Z,-7.35
2022-12-05T04:28:53.563Z,-7.35
2022-12-05T04:32:25.863Z,-7.35
2022-12-05T04:35:46.081Z,-7.35
2022-12-05T04:39:20.516Z,-7.33
2022-12-05T04:42:40.183Z,-7.31
2022-12-05T04:45:55.867Z,-7.35
2022-12-05T04:49:16.513Z,-7.36
2022-12-05T04:52:38.403Z,-7.36
2022-12-05T04:55:52.044Z,-7.36
2022-12-05T04:59:14.681Z,-7.36
2022-12-05T05:02:34.459Z,-7.39
2022-12-05T05:05:55.220Z,-7.39
2022-12-05T05:09:22.368Z,-7.38
2022-12-05T05:12:48.744Z,-7.40
2022-12-05T05:19:20.941Z,-7.42
2022-12-05T05:22:54.268Z,-7.53
2022-12-05T05:26:22.097Z,-7.53
2022-12-05T05:29:56.426Z,-7.57
2022-12-05T05:33:30.187Z,-7.54
2022-12-05T05:50:55.403Z,-7.55
2022-12-05T05:54:17.300Z,-7.53
2022-12-05T05:58:10.521Z,-7.48
2022-12-05T06:02:03.942Z,-7.44
2022-12-05T06:13:35.950Z,-7.43
2022-12-05T06:17:09.448Z,-7.41
2022-12-05T06:20:22.251Z,-7.33
2022-12-05T06:23:43.624Z,-7.27
2022-12-05T06:27:07.139Z,-7.27
2022-12-05T07:04:00.982Z,-6.79
2022-12-05T07:07:18.222Z,-6.62
2022-12-05T07:14:46.221Z,-6.41
2022-12-05T07:17:46.614Z,-6.42
2022-12-05T07:21:17.282Z,-6.36
2022-12-05T07:24:27.200Z,-6.34
2022-12-05T07:27:38.388Z,-6.28
2022-12-05T07:30:47.190Z,-6.23
2022-12-05T07:33:57.874Z,-6.22
2022-12-05T07:51:58.292Z,-5.72
2022-12-05T07:55:18.023Z,-5.69
2022-12-05T07:58:40.720Z,-5.58
2022-12-05T08:01:58.434Z,-5.52
2022-12-05T08:05:16.734Z,-5.48
2022-12-05T08:16:11.305Z,-5.24
2022-12-05T08:19:34.603Z,-5.06
2022-12-05T08:22:55.564Z,-4.92
2022-12-05T08:30:09.509Z,-4.72
2022-12-05T08:33:21.553Z,-4.60
2022-12-05T08:36:32.436Z,-4.47
2022-12-05T08:39:43.663Z,-4.33
2022-12-05T08:42:56.524Z,-4.29
2022-12-05T08:46:19.461Z,-4.24
2022-12-05T08:49:33.165Z,-4.22
2022-12-05T08:52:53.240Z,-4.14
2022-12-05T08:56:04.803Z,-4.04
2022-12-05T08:59:18.329Z,-3.97
2022-12-05T09:02:33.301Z,-3.92
2022-12-05T09:05:53.798Z,-3.88
2022-12-05T09:09:13.639Z,-3.78
2022-12-05T09:20:34.421Z,-3.51
2022-12-05T09:24:32.667Z,-3.43
2022-12-05T09:28:00.530Z,-3.39
2022-12-05T09:31:26.066Z,-3.38
2022-12-05T09:34:49.204Z,-3.36
2022-12-05T09:38:06.701Z,-3.24
2022-12-05T09:45:32.660Z,-3.08
2022-12-05T09:48:53.246Z,-2.98
2022-12-05T09:52:09.059Z,-2.93
2022-12-05T09:55:34.105Z,-2.89
2022-12-05T09:59:18.620Z,-2.80
2022-12-05T10:02:12.231Z,-2.67
2022-12-05T10:15:02.537Z,-2.26
2022-12-05T10:19:20.341Z,-2.19
2022-12-05T10:29:07.602Z,-1.95
2022-12-05T10:35:10.466Z,-1.77
2022-12-05T10:41:28.055Z,-1.70
2022-12-05T10:44:53.670Z,-1.61
2022-12-05T10:56:42.523Z,-1.30
2022-12-05T11:27:44.330Z,-0.58
2022-12-05T11:30:55.210Z,-0.57
2022-12-05T11:38:10.737Z,-0.39
2022-12-05T11:41:55.458Z,-0.26
2022-12-05T11:45:52.586Z,-0.15
2022-12-05T11:49:30.750Z,-0.04
2022-12-05T11:53:18.525Z,-0.02
2022-12-05T11:56:52.516Z,0.03
2022-12-05T12:00:21.049Z,0.09
2022-12-05T12:04:27.253Z,0.06
2022-12-05T12:08:26.233Z,0.02
2022-12-05T12:12:15.199Z,0.07
2022-12-05T12:16:05.192Z,0.13
2022-12-05T12:19:44.739Z,0.10
2022-12-05T12:23:12.856Z,0.00
2022-12-05T12:26:59.611Z,-0.12
2022-12-05T12:30:46.342Z,-0.20
2022-12-05T12:54:54.727Z,-0.62
2022-12-05T12:58:28.157Z,-0.67
2022-12-05T13:02:15.678Z,-0.69
2022-12-05T13:06:18.128Z,-0.74
2022-12-05T13:10:08.691Z,-0.84
2022-12-05T13:21:26.914Z,-1.11
2022-12-05T13:25:09.339Z,-1.24
2022-12-05T13:37:35.474Z,-1.60
2022-12-05T13:41:52.619Z,-1.71
2022-12-05T13:53:24.684Z,-2.01
2022-12-05T13:57:30.683Z,-2.13
2022-12-05T14:01:05.753Z,-2.20
2022-12-05T14:16:36.966Z,-2.52
2022-12-05T14:23:56.719Z,-2.70
2022-12-05T14:27:55.018Z,-2.76
2022-12-05T14:31:21.972Z,-2.82
2022-12-05T14:35:07.806Z,-2.87
2022-12-05T14:39:10.184Z,-2.92
2022-12-05T14:42:56.485Z,-2.96
2022-12-05T14:51:10.428Z,-3.09
2022-12-05T14:54:52.266Z,-3.13
2022-12-05T14:59:06.001Z,-3.18
2022-12-05T15:06:36.727Z,-3.27
2022-12-05T15:10:33.223Z,-3.31
2022-12-05T15:14:18.275Z,-3.33
2022-12-05T15:17:51.515Z,-3.39
2022-12-05T15:25:07.434Z,-3.41
2022-12-05T15:42:31.392Z,-3.65
2022-12-05T15:46:35.109Z,-3.76
2022-12-05T16:04:12.792Z,-3.80
2022-12-05T16:07:32.574Z,-3.88
2022-12-05T16:11:05.539Z,-3.90
2022-12-05T16:27:02.357Z,-3.90
2022-12-05T16:34:02.235Z,-3.90
2022-12-05T17:30:37.986Z,-3.91
2022-12-05T17:34:20.835Z,-4.34
2022-12-05T17:37:47.592Z,-4.31
2022-12-05T17:41:40.454Z,-4.30
2022-12-05T17:45:02.320Z,-4.29
2022-12-05T17:48:41.800Z,-4.26
2022-12-05T17:52:25.401Z,-4.27
2022-12-05T17:55:57.476Z,-4.26
2022-12-05T17:59:56.785Z,-4.20
2022-12-05T18:06:55.138Z,-4.15
2022-12-05T18:10:25.774Z,-4.19
2022-12-05T18:13:49.073Z,-4.22
